sensor_id;sensor_type;location;lat;lon;timestamp;P1;durP1;ratioP1;P2;durP2;ratioP2
25231;SDS011;13176;51.140;6.290;2022-09-01T00:01:37;11.00;;;10.38;;
25231;SDS011;13176;51.140;6.290;2022-09-01T00:04:13;11.35;;;10.75;;
25231;SDS011;13176;51.140;6.290;2022-09-01T00:06:41;12.63;;;12.02;;
25231;SDS011;13176;51.140;6.290;2022-09-01T00:09:10;14.10;;;12.88;;
25231;SDS011;13176;51.140;6.290;2022-09-01T00:11:39;12.73;;;12.05;;
25231;SDS011;13176;51.140;6.290;2022-09-01T00:14:15;15.13;;;13.93;;
25231;SDS011;13176;51.140;6.290;2022-09-01T00:16:57;13.70;;;12.82;;
25231;SDS011;13176;51.140;6.290;2022-09-01T00:19:24;13.63;;;12.75;;
25231;SDS011;13176;51.140;6.290;2022-09-01T00:21:51;14.15;;;13.20;;
25231;SDS011;13176;51.140;6.290;2022-09-01T00:24:18;12.63;;;11.95;;
25231;SDS011;13176;51.140;6.290;2022-09-01T00:26:45;12.30;;;11.70;;
25231;SDS011;13176;51.140;6.290;2022-09-01T00:29:11;14.20;;;13.48;;
25231;SDS011;13176;51.140;6.290;2022-09-01T00:31:38;13.90;;;12.90;;
25231;SDS011;13176;51.140;6.290;2022-09-01T00:34:05;14.98;;;14.18;;
25231;SDS011;13176;51.140;6.290;2022-09-01T00:36:31;15.68;;;14.73;;
25231;SDS011;13176;51.140;6.290;2022-09-01T00:38:58;14.77;;;13.90;;
25231;SDS011;13176;51.140;6.290;2022-09-01T00:41:25;14.77;;;13.98;;
25231;SDS011;13176;51.140;6.290;2022-09-01T00:43:58;15.70;;;14.60;;
25231;SDS011;13176;51.140;6.290;2022-09-01T00:46:30;13.52;;;12.77;;
25231;SDS011;13176;51.140;6.290;2022-09-01T00:51:37;14.07;;;13.27;;
25231;SDS011;13176;51.140;6.290;2022-09-01T00:54:06;14.82;;;13.90;;
25231;SDS011;13176;51.140;6.290;2022-09-01T00:56:37;11.13;;;10.52;;
25231;SDS011;13176;51.140;6.290;2022-09-01T00:59:11;11.05;;;10.35;;
25231;SDS011;13176;51.140;6.290;2022-09-01T01:01:40;11.57;;;10.80;;
25231;SDS011;13176;51.140;6.290;2022-09-01T01:04:07;11.05;;;10.27;;
25231;SDS011;13176;51.140;6.290;2022-09-01T01:06:43;10.50;;;9.90;;
25231;SDS011;13176;51.140;6.290;2022-09-01T01:09:16;11.13;;;10.32;;
25231;SDS011;13176;51.140;6.290;2022-09-01T01:11:45;11.00;;;10.25;;
25231;SDS011;13176;51.140;6.290;2022-09-01T01:14:13;15.32;;;14.27;;
25231;SDS011;13176;51.140;6.290;2022-09-01T01:16:43;12.20;;;11.52;;
25231;SDS011;13176;51.140;6.290;2022-09-01T01:19:19;14.75;;;13.88;;
25231;SDS011;13176;51.140;6.290;2022-09-01T01:22:21;11.85;;;11.15;;
25231;SDS011;13176;51.140;6.290;2022-09-01T01:25:16;15.18;;;14.38;;
25231;SDS011;13176;51.140;6.290;2022-09-01T01:27:44;15.98;;;14.82;;
25231;SDS011;13176;51.140;6.290;2022-09-01T01:30:11;16.77;;;15.70;;
25231;SDS011;13176;51.140;6.290;2022-09-01T01:32:38;15.73;;;14.80;;
25231;SDS011;13176;51.140;6.290;2022-09-01T01:35:09;15.70;;;14.90;;
25231;SDS011;13176;51.140;6.290;2022-09-01T01:37:43;17.25;;;16.15;;
25231;SDS011;13176;51.140;6.290;2022-09-01T01:40:14;15.57;;;14.75;;
25231;SDS011;13176;51.140;6.290;2022-09-01T01:42:43;16.05;;;15.00;;
25231;SDS011;13176;51.140;6.290;2022-09-01T01:45:11;14.75;;;13.95;;
25231;SDS011;13176;51.140;6.290;2022-09-01T01:47:43;16.52;;;15.60;;
25231;SDS011;13176;51.140;6.290;2022-09-01T01:50:36;17.58;;;16.65;;
25231;SDS011;13176;51.140;6.290;2022-09-01T01:53:05;19.85;;;18.75;;
25231;SDS011;13176;51.140;6.290;2022-09-01T01:55:36;17.37;;;16.30;;
25231;SDS011;13176;51.140;6.290;2022-09-01T01:58:04;16.42;;;14.80;;
25231;SDS011;13176;51.140;6.290;2022-09-01T02:00:31;15.70;;;14.80;;
25231;SDS011;13176;51.140;6.290;2022-09-01T02:03:00;15.10;;;14.05;;
25231;SDS011;13176;51.140;6.290;2022-09-01T02:05:28;12.90;;;12.10;;
25231;SDS011;13176;51.140;6.290;2022-09-01T02:08:02;15.10;;;13.90;;
25231;SDS011;13176;51.140;6.290;2022-09-01T02:10:33;14.07;;;13.25;;
25231;SDS011;13176;51.140;6.290;2022-09-01T02:13:03;16.13;;;15.13;;
25231;SDS011;13176;51.140;6.290;2022-09-01T02:15:33;17.33;;;16.42;;
25231;SDS011;13176;51.140;6.290;2022-09-01T02:18:08;18.27;;;17.02;;
25231;SDS011;13176;51.140;6.290;2022-09-01T02:20:56;15.48;;;14.57;;
25231;SDS011;13176;51.140;6.290;2022-09-01T02:23:23;15.57;;;14.77;;
25231;SDS011;13176;51.140;6.290;2022-09-01T02:25:51;16.65;;;15.65;;
25231;SDS011;13176;51.140;6.290;2022-09-01T02:28:40;16.85;;;15.75;;
25231;SDS011;13176;51.140;6.290;2022-09-01T02:31:08;18.17;;;16.05;;
25231;SDS011;13176;51.140;6.290;2022-09-01T02:33:37;16.08;;;15.18;;
25231;SDS011;13176;51.140;6.290;2022-09-01T02:36:09;18.02;;;17.08;;
25231;SDS011;13176;51.140;6.290;2022-09-01T02:38:39;18.63;;;17.58;;
25231;SDS011;13176;51.140;6.290;2022-09-01T02:41:11;19.70;;;18.60;;
25231;SDS011;13176;51.140;6.290;2022-09-01T02:43:39;18.20;;;17.05;;
25231;SDS011;13176;51.140;6.290;2022-09-01T02:46:08;19.25;;;18.15;;
25231;SDS011;13176;51.140;6.290;2022-09-01T02:48:36;21.17;;;19.88;;
25231;SDS011;13176;51.140;6.290;2022-09-01T02:51:09;22.27;;;21.05;;
25231;SDS011;13176;51.140;6.290;2022-09-01T02:53:39;24.23;;;22.95;;
25231;SDS011;13176;51.140;6.290;2022-09-01T02:56:08;24.42;;;22.83;;
25231;SDS011;13176;51.140;6.290;2022-09-01T02:58:40;26.10;;;24.65;;
25231;SDS011;13176;51.140;6.290;2022-09-01T03:01:21;27.58;;;26.08;;
25231;SDS011;13176;51.140;6.290;2022-09-01T03:03:56;23.50;;;22.23;;
25231;SDS011;13176;51.140;6.290;2022-09-01T03:06:25;24.95;;;23.58;;
25231;SDS011;13176;51.140;6.290;2022-09-01T03:08:53;23.85;;;22.48;;
25231;SDS011;13176;51.140;6.290;2022-09-01T03:11:25;25.02;;;23.17;;
25231;SDS011;13176;51.140;6.290;2022-09-01T03:13:54;26.00;;;24.20;;
25231;SDS011;13176;51.140;6.290;2022-09-01T03:16:21;24.33;;;22.88;;
25231;SDS011;13176;51.140;6.290;2022-09-01T03:18:48;21.35;;;20.10;;
25231;SDS011;13176;51.140;6.290;2022-09-01T03:21:15;20.55;;;19.50;;
25231;SDS011;13176;51.140;6.290;2022-09-01T03:23:43;19.50;;;18.50;;
25231;SDS011;13176;51.140;6.290;2022-09-01T03:26:10;23.15;;;21.85;;
25231;SDS011;13176;51.140;6.290;2022-09-01T03:28:38;23.77;;;22.40;;
25231;SDS011;13176;51.140;6.290;2022-09-01T03:31:07;20.75;;;19.48;;
25231;SDS011;13176;51.140;6.290;2022-09-01T03:33:34;19.50;;;17.80;;
25231;SDS011;13176;51.140;6.290;2022-09-01T03:36:02;20.33;;;19.23;;
25231;SDS011;13176;51.140;6.290;2022-09-01T03:38:39;19.13;;;18.02;;
25231;SDS011;13176;51.140;6.290;2022-09-01T03:41:09;22.83;;;21.58;;
25231;SDS011;13176;51.140;6.290;2022-09-01T03:43:38;23.38;;;21.63;;
25231;SDS011;13176;51.140;6.290;2022-09-01T03:46:13;24.65;;;23.30;;
25231;SDS011;13176;51.140;6.290;2022-09-01T03:48:48;22.63;;;21.00;;
25231;SDS011;13176;51.140;6.290;2022-09-01T03:51:20;20.75;;;19.42;;
25231;SDS011;13176;51.140;6.290;2022-09-01T03:53:49;20.70;;;19.45;;
25231;SDS011;13176;51.140;6.290;2022-09-01T03:56:20;19.40;;;17.88;;
25231;SDS011;13176;51.140;6.290;2022-09-01T03:58:52;20.05;;;18.70;;
25231;SDS011;13176;51.140;6.290;2022-09-01T04:01:22;18.80;;;17.75;;
25231;SDS011;13176;51.140;6.290;2022-09-01T04:03:50;19.38;;;18.30;;
25231;SDS011;13176;51.140;6.290;2022-09-01T04:06:18;20.60;;;19.27;;
25231;SDS011;13176;51.140;6.290;2022-09-01T04:08:45;20.15;;;18.98;;
25231;SDS011;13176;51.140;6.290;2022-09-01T04:11:14;25.92;;;24.50;;
25231;SDS011;13176;51.140;6.290;2022-09-01T04:13:45;26.45;;;24.98;;
25231;SDS011;13176;51.140;6.290;2022-09-01T04:19:06;25.40;;;23.90;;
25231;SDS011;13176;51.140;6.290;2022-09-01T04:21:44;24.00;;;22.60;;
25231;SDS011;13176;51.140;6.290;2022-09-01T04:24:12;25.55;;;23.83;;
25231;SDS011;13176;51.140;6.290;2022-09-01T04:26:40;21.40;;;20.20;;
25231;SDS011;13176;51.140;6.290;2022-09-01T04:29:07;21.80;;;20.50;;
25231;SDS011;13176;51.140;6.290;2022-09-01T04:31:36;26.98;;;25.42;;
25231;SDS011;13176;51.140;6.290;2022-09-01T04:34:07;22.25;;;21.10;;
25231;SDS011;13176;51.140;6.290;2022-09-01T04:36:39;25.23;;;23.30;;
25231;SDS011;13176;51.140;6.290;2022-09-01T04:39:08;19.67;;;18.30;;
25231;SDS011;13176;51.140;6.290;2022-09-01T04:41:43;22.60;;;21.10;;
25231;SDS011;13176;51.140;6.290;2022-09-01T04:44:11;17.95;;;16.88;;
25231;SDS011;13176;51.140;6.290;2022-09-01T04:46:40;20.00;;;18.80;;
25231;SDS011;13176;51.140;6.290;2022-09-01T04:49:11;18.80;;;17.70;;
25231;SDS011;13176;51.140;6.290;2022-09-01T04:51:42;20.55;;;19.45;;
25231;SDS011;13176;51.140;6.290;2022-09-01T04:54:18;18.38;;;17.38;;
25231;SDS011;13176;51.140;6.290;2022-09-01T04:56:47;19.73;;;18.33;;
25231;SDS011;13176;51.140;6.290;2022-09-01T04:59:16;16.67;;;15.75;;
25231;SDS011;13176;51.140;6.290;2022-09-01T05:01:47;16.98;;;16.05;;
25231;SDS011;13176;51.140;6.290;2022-09-01T05:04:17;20.00;;;18.90;;
25231;SDS011;13176;51.140;6.290;2022-09-01T05:06:48;18.20;;;17.20;;
25231;SDS011;13176;51.140;6.290;2022-09-01T05:09:20;20.88;;;19.60;;
25231;SDS011;13176;51.140;6.290;2022-09-01T05:11:47;19.60;;;18.42;;
25231;SDS011;13176;51.140;6.290;2022-09-01T05:14:15;18.40;;;17.48;;
25231;SDS011;13176;51.140;6.290;2022-09-01T05:16:47;19.45;;;18.30;;
25231;SDS011;13176;51.140;6.290;2022-09-01T05:19:15;19.35;;;18.15;;
25231;SDS011;13176;51.140;6.290;2022-09-01T05:21:46;21.88;;;20.75;;
25231;SDS011;13176;51.140;6.290;2022-09-01T05:24:18;22.05;;;20.65;;
25231;SDS011;13176;51.140;6.290;2022-09-01T05:26:47;24.98;;;23.35;;
25231;SDS011;13176;51.140;6.290;2022-09-01T05:29:16;25.80;;;24.20;;
25231;SDS011;13176;51.140;6.290;2022-09-01T05:31:44;24.05;;;22.63;;
25231;SDS011;13176;51.140;6.290;2022-09-01T05:34:15;24.90;;;23.05;;
25231;SDS011;13176;51.140;6.290;2022-09-01T05:36:47;25.95;;;24.58;;
25231;SDS011;13176;51.140;6.290;2022-09-01T05:39:15;26.02;;;24.63;;
25231;SDS011;13176;51.140;6.290;2022-09-01T05:41:42;27.42;;;25.75;;
25231;SDS011;13176;51.140;6.290;2022-09-01T05:44:09;27.30;;;25.70;;
25231;SDS011;13176;51.140;6.290;2022-09-01T05:46:37;30.30;;;28.40;;
25231;SDS011;13176;51.140;6.290;2022-09-01T05:49:05;25.95;;;24.35;;
25231;SDS011;13176;51.140;6.290;2022-09-01T05:51:34;27.83;;;26.27;;
25231;SDS011;13176;51.140;6.290;2022-09-01T05:54:13;32.15;;;30.15;;
25231;SDS011;13176;51.140;6.290;2022-09-01T05:56:42;31.52;;;29.70;;
25231;SDS011;13176;51.140;6.290;2022-09-01T05:59:11;31.95;;;30.13;;
25231;SDS011;13176;51.140;6.290;2022-09-01T06:01:49;34.25;;;32.15;;
25231;SDS011;13176;51.140;6.290;2022-09-01T06:04:18;37.15;;;34.90;;
25231;SDS011;13176;51.140;6.290;2022-09-01T06:06:46;41.42;;;39.00;;
25231;SDS011;13176;51.140;6.290;2022-09-01T06:09:32;34.63;;;32.00;;
25231;SDS011;13176;51.140;6.290;2022-09-01T06:12:03;40.67;;;38.47;;
25231;SDS011;13176;51.140;6.290;2022-09-01T06:14:30;36.53;;;34.08;;
25231;SDS011;13176;51.140;6.290;2022-09-01T06:16:57;45.20;;;42.80;;
25231;SDS011;13176;51.140;6.290;2022-09-01T06:19:24;43.88;;;41.15;;
25231;SDS011;13176;51.140;6.290;2022-09-01T06:21:50;43.25;;;40.65;;
25231;SDS011;13176;51.140;6.290;2022-09-01T06:24:17;45.22;;;42.75;;
25231;SDS011;13176;51.140;6.290;2022-09-01T06:26:43;40.38;;;38.08;;
25231;SDS011;13176;51.140;6.290;2022-09-01T06:29:11;45.92;;;43.35;;
25231;SDS011;13176;51.140;6.290;2022-09-01T06:31:40;46.90;;;44.20;;
25231;SDS011;13176;51.140;6.290;2022-09-01T06:34:08;51.67;;;48.78;;
25231;SDS011;13176;51.140;6.290;2022-09-01T06:36:37;40.53;;;38.25;;
25231;SDS011;13176;51.140;6.290;2022-09-01T06:39:06;42.28;;;39.50;;
25231;SDS011;13176;51.140;6.290;2022-09-01T06:41:34;19.63;;;18.52;;
25231;SDS011;13176;51.140;6.290;2022-09-01T06:44:03;22.30;;;21.00;;
25231;SDS011;13176;51.140;6.290;2022-09-01T06:46:30;27.90;;;26.38;;
25231;SDS011;13176;51.140;6.290;2022-09-01T06:48:57;33.88;;;32.10;;
25231;SDS011;13176;51.140;6.290;2022-09-01T06:51:24;25.27;;;23.83;;
25231;SDS011;13176;51.140;6.290;2022-09-01T06:53:54;25.02;;;23.60;;
25231;SDS011;13176;51.140;6.290;2022-09-01T06:56:22;18.55;;;17.38;;
25231;SDS011;13176;51.140;6.290;2022-09-01T06:58:54;16.65;;;15.57;;
25231;SDS011;13176;51.140;6.290;2022-09-01T07:01:22;17.65;;;16.67;;
25231;SDS011;13176;51.140;6.290;2022-09-01T07:03:50;18.73;;;17.52;;
25231;SDS011;13176;51.140;6.290;2022-09-01T07:06:18;13.85;;;13.15;;
25231;SDS011;13176;51.140;6.290;2022-09-01T07:09:10;16.13;;;15.07;;
25231;SDS011;13176;51.140;6.290;2022-09-01T07:11:45;15.35;;;14.55;;
25231;SDS011;13176;51.140;6.290;2022-09-01T07:14:32;13.20;;;12.27;;
25231;SDS011;13176;51.140;6.290;2022-09-01T07:16:58;13.38;;;12.48;;
25231;SDS011;13176;51.140;6.290;2022-09-01T07:19:44;18.65;;;17.60;;
25231;SDS011;13176;51.140;6.290;2022-09-01T07:22:13;26.92;;;25.33;;
25231;SDS011;13176;51.140;6.290;2022-09-01T07:25:00;26.75;;;25.35;;
25231;SDS011;13176;51.140;6.290;2022-09-01T07:27:43;20.35;;;19.10;;
25231;SDS011;13176;51.140;6.290;2022-09-01T07:30:17;19.38;;;18.15;;
25231;SDS011;13176;51.140;6.290;2022-09-01T07:32:49;20.02;;;18.65;;
25231;SDS011;13176;51.140;6.290;2022-09-01T07:35:19;23.20;;;21.73;;
25231;SDS011;13176;51.140;6.290;2022-09-01T07:37:47;21.27;;;20.17;;
25231;SDS011;13176;51.140;6.290;2022-09-01T07:40:37;21.52;;;20.35;;
25231;SDS011;13176;51.140;6.290;2022-09-01T07:43:25;19.48;;;18.48;;
25231;SDS011;13176;51.140;6.290;2022-09-01T07:45:58;22.70;;;21.40;;
25231;SDS011;13176;51.140;6.290;2022-09-01T07:48:54;21.70;;;20.58;;
25231;SDS011;13176;51.140;6.290;2022-09-01T07:51:41;16.08;;;14.82;;
25231;SDS011;13176;51.140;6.290;2022-09-01T07:54:09;21.08;;;19.77;;
25231;SDS011;13176;51.140;6.290;2022-09-01T07:56:38;15.55;;;14.68;;
25231;SDS011;13176;51.140;6.290;2022-09-01T07:59:06;20.60;;;19.05;;
25231;SDS011;13176;51.140;6.290;2022-09-01T08:01:37;20.10;;;18.92;;
25231;SDS011;13176;51.140;6.290;2022-09-01T08:04:04;15.38;;;14.50;;
25231;SDS011;13176;51.140;6.290;2022-09-01T08:06:30;21.80;;;20.35;;
25231;SDS011;13176;51.140;6.290;2022-09-01T08:09:03;20.40;;;19.30;;
25231;SDS011;13176;51.140;6.290;2022-09-01T08:11:37;21.15;;;19.95;;
25231;SDS011;13176;51.140;6.290;2022-09-01T08:14:24;16.55;;;15.65;;
25231;SDS011;13176;51.140;6.290;2022-09-01T08:16:50;24.50;;;22.90;;
25231;SDS011;13176;51.140;6.290;2022-09-01T08:19:18;21.73;;;20.58;;
25231;SDS011;13176;51.140;6.290;2022-09-01T08:21:44;19.52;;;18.35;;
25231;SDS011;13176;51.140;6.290;2022-09-01T08:24:11;14.80;;;13.60;;
25231;SDS011;13176;51.140;6.290;2022-09-01T08:26:37;16.75;;;15.88;;
25231;SDS011;13176;51.140;6.290;2022-09-01T08:29:04;21.50;;;20.17;;
25231;SDS011;13176;51.140;6.290;2022-09-01T08:31:31;20.95;;;19.55;;
25231;SDS011;13176;51.140;6.290;2022-09-01T08:33:59;19.70;;;18.60;;
25231;SDS011;13176;51.140;6.290;2022-09-01T08:36:30;14.55;;;13.65;;
25231;SDS011;13176;51.140;6.290;2022-09-01T08:38:57;16.25;;;15.18;;
25231;SDS011;13176;51.140;6.290;2022-09-01T08:41:38;20.67;;;19.63;;
25231;SDS011;13176;51.140;6.290;2022-09-01T08:47:06;12.60;;;11.90;;
25231;SDS011;13176;51.140;6.290;2022-09-01T08:49:40;14.80;;;13.68;;
25231;SDS011;13176;51.140;6.290;2022-09-01T08:52:23;13.52;;;12.43;;
25231;SDS011;13176;51.140;6.290;2022-09-01T08:55:05;13.20;;;12.50;;
25231;SDS011;13176;51.140;6.290;2022-09-01T08:57:38;13.50;;;12.70;;
25231;SDS011;13176;51.140;6.290;2022-09-01T09:00:08;11.60;;;11.00;;
25231;SDS011;13176;51.140;6.290;2022-09-01T09:02:50;10.68;;;10.13;;
25231;SDS011;13176;51.140;6.290;2022-09-01T09:11:03;12.20;;;11.45;;
25231;SDS011;13176;51.140;6.290;2022-09-01T09:13:36;14.10;;;13.20;;
25231;SDS011;13176;51.140;6.290;2022-09-01T09:16:14;16.70;;;15.85;;
25231;SDS011;13176;51.140;6.290;2022-09-01T09:18:52;20.50;;;19.40;;
25231;SDS011;13176;51.140;6.290;2022-09-01T09:21:24;18.77;;;17.52;;
25231;SDS011;13176;51.140;6.290;2022-09-01T09:23:57;14.15;;;13.43;;
25231;SDS011;13176;51.140;6.290;2022-09-01T09:26:32;10.68;;;10.07;;
25231;SDS011;13176;51.140;6.290;2022-09-01T09:29:13;6.80;;;6.47;;
25231;SDS011;13176;51.140;6.290;2022-09-01T09:31:40;6.30;;;5.63;;
25231;SDS011;13176;51.140;6.290;2022-09-01T09:34:49;7.75;;;7.35;;
25231;SDS011;13176;51.140;6.290;2022-09-01T09:37:15;7.97;;;7.57;;
25231;SDS011;13176;51.140;6.290;2022-09-01T09:40:03;14.82;;;13.70;;
25231;SDS011;13176;51.140;6.290;2022-09-01T09:42:37;8.18;;;7.47;;
25231;SDS011;13176;51.140;6.290;2022-09-01T09:45:24;6.75;;;6.35;;
25231;SDS011;13176;51.140;6.290;2022-09-01T09:47:54;6.70;;;6.35;;
25231;SDS011;13176;51.140;6.290;2022-09-01T09:58:24;6.63;;;6.10;;
25231;SDS011;13176;51.140;6.290;2022-09-01T10:00:58;9.70;;;8.88;;
25231;SDS011;13176;51.140;6.290;2022-09-01T10:03:36;9.85;;;8.85;;
25231;SDS011;13176;51.140;6.290;2022-09-01T10:06:13;10.65;;;9.85;;
25231;SDS011;13176;51.140;6.290;2022-09-01T10:08:55;10.20;;;9.25;;
25231;SDS011;13176;51.140;6.290;2022-09-01T10:11:31;11.45;;;10.55;;
25231;SDS011;13176;51.140;6.290;2022-09-01T10:14:16;8.07;;;7.68;;
25231;SDS011;13176;51.140;6.290;2022-09-01T10:17:06;8.35;;;7.72;;
25231;SDS011;13176;51.140;6.290;2022-09-01T10:19:58;6.95;;;6.57;;
25231;SDS011;13176;51.140;6.290;2022-09-01T10:22:36;6.15;;;5.85;;
25231;SDS011;13176;51.140;6.290;2022-09-01T10:25:05;7.22;;;6.65;;
25231;SDS011;13176;51.140;6.290;2022-09-01T10:27:36;8.60;;;8.02;;
25231;SDS011;13176;51.140;6.290;2022-09-01T10:30:10;7.60;;;7.20;;
25231;SDS011;13176;51.140;6.290;2022-09-01T10:35:33;7.47;;;6.78;;
25231;SDS011;13176;51.140;6.290;2022-09-01T10:38:06;8.02;;;7.63;;
25231;SDS011;13176;51.140;6.290;2022-09-01T10:40:53;7.47;;;6.97;;
25231;SDS011;13176;51.140;6.290;2022-09-01T10:43:46;7.85;;;7.18;;
25231;SDS011;13176;51.140;6.290;2022-09-01T10:48:52;7.03;;;6.68;;
25231;SDS011;13176;51.140;6.290;2022-09-01T10:54:03;8.45;;;7.88;;
25231;SDS011;13176;51.140;6.290;2022-09-01T10:56:38;8.68;;;8.18;;
25231;SDS011;13176;51.140;6.290;2022-09-01T11:02:05;8.23;;;7.72;;
25231;SDS011;13176;51.140;6.290;2022-09-01T11:15:53;5.50;;;5.20;;
25231;SDS011;13176;51.140;6.290;2022-09-01T11:18:26;5.20;;;4.90;;
25231;SDS011;13176;51.140;6.290;2022-09-01T11:27:54;5.07;;;4.85;;
25231;SDS011;13176;51.140;6.290;2022-09-01T11:30:22;5.68;;;5.38;;
25231;SDS011;13176;51.140;6.290;2022-09-01T11:33:03;5.65;;;5.35;;
25231;SDS011;13176;51.140;6.290;2022-09-01T11:36:35;6.55;;;6.25;;
25231;SDS011;13176;51.140;6.290;2022-09-01T11:41:21;6.25;;;5.95;;
25231;SDS011;13176;51.140;6.290;2022-09-01T11:44:13;11.20;;;6.82;;
25231;SDS011;13176;51.140;6.290;2022-09-01T11:46:45;6.18;;;5.88;;
25231;SDS011;13176;51.140;6.290;2022-09-01T11:51:59;7.18;;;6.78;;
25231;SDS011;13176;51.140;6.290;2022-09-01T11:54:28;7.22;;;6.60;;
25231;SDS011;13176;51.140;6.290;2022-09-01T11:57:15;7.07;;;6.45;;
25231;SDS011;13176;51.140;6.290;2022-09-01T11:59:42;6.50;;;6.10;;
25231;SDS011;13176;51.140;6.290;2022-09-01T12:02:09;6.10;;;5.80;;
25231;SDS011;13176;51.140;6.290;2022-09-01T12:04:43;5.80;;;5.50;;
25231;SDS011;13176;51.140;6.290;2022-09-01T12:07:13;5.18;;;4.88;;
25231;SDS011;13176;51.140;6.290;2022-09-01T12:09:51;8.68;;;8.18;;
25231;SDS011;13176;51.140;6.290;2022-09-01T12:12:58;5.65;;;5.35;;
25231;SDS011;13176;51.140;6.290;2022-09-01T12:15:24;5.25;;;4.95;;
25231;SDS011;13176;51.140;6.290;2022-09-01T12:17:52;5.57;;;5.28;;
25231;SDS011;13176;51.140;6.290;2022-09-01T12:20:27;5.40;;;5.13;;
25231;SDS011;13176;51.140;6.290;2022-09-01T12:22:56;6.07;;;5.57;;
25231;SDS011;13176;51.140;6.290;2022-09-01T12:25:34;6.35;;;5.95;;
25231;SDS011;13176;51.140;6.290;2022-09-01T12:28:01;6.40;;;6.10;;
25231;SDS011;13176;51.140;6.290;2022-09-01T12:30:32;6.18;;;5.88;;
25231;SDS011;13176;51.140;6.290;2022-09-01T12:33:05;7.20;;;6.80;;
25231;SDS011;13176;51.140;6.290;2022-09-01T12:35:50;6.85;;;6.45;;
25231;SDS011;13176;51.140;6.290;2022-09-01T12:38:22;8.57;;;8.00;;
25231;SDS011;13176;51.140;6.290;2022-09-01T12:40:54;8.13;;;7.65;;
25231;SDS011;13176;51.140;6.290;2022-09-01T12:43:33;7.30;;;6.90;;
25231;SDS011;13176;51.140;6.290;2022-09-01T12:46:06;7.57;;;7.22;;
25231;SDS011;13176;51.140;6.290;2022-09-01T12:48:36;9.13;;;8.07;;
25231;SDS011;13176;51.140;6.290;2022-09-01T12:51:18;8.65;;;8.25;;
25231;SDS011;13176;51.140;6.290;2022-09-01T12:53:55;7.90;;;7.45;;
25231;SDS011;13176;51.140;6.290;2022-09-01T12:56:26;8.02;;;7.32;;
25231;SDS011;13176;51.140;6.290;2022-09-01T13:07:45;7.47;;;6.97;;
25231;SDS011;13176;51.140;6.290;2022-09-01T13:10:12;8.85;;;6.95;;
25231;SDS011;13176;51.140;6.290;2022-09-01T13:12:40;7.68;;;7.28;;
25231;SDS011;13176;51.140;6.290;2022-09-01T13:15:08;8.18;;;7.75;;
25231;SDS011;13176;51.140;6.290;2022-09-01T13:17:35;8.27;;;7.88;;
25231;SDS011;13176;51.140;6.290;2022-09-01T13:20:06;8.52;;;8.13;;
25231;SDS011;13176;51.140;6.290;2022-09-01T13:22:34;8.57;;;8.07;;
25231;SDS011;13176;51.140;6.290;2022-09-01T13:25:00;7.80;;;7.35;;
25231;SDS011;13176;51.140;6.290;2022-09-01T13:27:27;8.45;;;8.02;;
25231;SDS011;13176;51.140;6.290;2022-09-01T13:29:54;9.05;;;8.20;;
25231;SDS011;13176;51.140;6.290;2022-09-01T13:32:21;9.70;;;9.00;;
25231;SDS011;13176;51.140;6.290;2022-09-01T13:34:50;9.60;;;8.88;;
25231;SDS011;13176;51.140;6.290;2022-09-01T13:37:19;9.45;;;8.85;;
25231;SDS011;13176;51.140;6.290;2022-09-01T13:39:46;9.60;;;8.77;;
25231;SDS011;13176;51.140;6.290;2022-09-01T13:42:13;8.85;;;8.30;;
25231;SDS011;13176;51.140;6.290;2022-09-01T13:44:41;9.85;;;9.27;;
25231;SDS011;13176;51.140;6.290;2022-09-01T13:47:09;9.88;;;9.25;;
25231;SDS011;13176;51.140;6.290;2022-09-01T13:49:56;8.57;;;8.18;;
25231;SDS011;13176;51.140;6.290;2022-09-01T13:52:33;9.27;;;8.68;;
25231;SDS011;13176;51.140;6.290;2022-09-01T13:55:00;9.23;;;8.63;;
25231;SDS011;13176;51.140;6.290;2022-09-01T13:57:27;9.93;;;9.25;;
25231;SDS011;13176;51.140;6.290;2022-09-01T14:00:01;10.35;;;9.80;;
25231;SDS011;13176;51.140;6.290;2022-09-01T14:02:29;10.48;;;9.73;;
25231;SDS011;13176;51.140;6.290;2022-09-01T14:04:55;10.20;;;9.60;;
25231;SDS011;13176;51.140;6.290;2022-09-01T14:07:22;9.43;;;8.93;;
25231;SDS011;13176;51.140;6.290;2022-09-01T14:09:48;10.55;;;9.98;;
25231;SDS011;13176;51.140;6.290;2022-09-01T14:12:15;11.20;;;10.60;;
25231;SDS011;13176;51.140;6.290;2022-09-01T14:14:41;10.90;;;10.40;;
25231;SDS011;13176;51.140;6.290;2022-09-01T14:17:27;11.93;;;11.23;;
25231;SDS011;13176;51.140;6.290;2022-09-01T14:19:54;12.20;;;11.55;;
25231;SDS011;13176;51.140;6.290;2022-09-01T14:22:22;13.70;;;12.65;;
25231;SDS011;13176;51.140;6.290;2022-09-01T14:24:48;12.90;;;12.25;;
25231;SDS011;13176;51.140;6.290;2022-09-01T14:27:15;12.27;;;11.68;;
25231;SDS011;13176;51.140;6.290;2022-09-01T14:29:42;12.38;;;11.57;;
25231;SDS011;13176;51.140;6.290;2022-09-01T14:32:07;13.70;;;12.45;;
25231;SDS011;13176;51.140;6.290;2022-09-01T14:34:35;11.73;;;11.13;;
25231;SDS011;13176;51.140;6.290;2022-09-01T14:37:02;11.85;;;11.25;;
25231;SDS011;13176;51.140;6.290;2022-09-01T14:39:29;14.43;;;13.52;;
25231;SDS011;13176;51.140;6.290;2022-09-01T14:41:56;13.43;;;12.73;;
25231;SDS011;13176;51.140;6.290;2022-09-01T14:44:22;12.80;;;11.93;;
25231;SDS011;13176;51.140;6.290;2022-09-01T14:46:49;11.77;;;11.18;;
25231;SDS011;13176;51.140;6.290;2022-09-01T14:49:16;12.00;;;11.20;;
25231;SDS011;13176;51.140;6.290;2022-09-01T14:51:47;13.18;;;12.40;;
25231;SDS011;13176;51.140;6.290;2022-09-01T14:54:34;12.95;;;12.35;;
25231;SDS011;13176;51.140;6.290;2022-09-01T14:57:07;13.73;;;13.02;;
25231;SDS011;13176;51.140;6.290;2022-09-01T14:59:54;13.00;;;12.30;;
25231;SDS011;13176;51.140;6.290;2022-09-01T15:02:20;13.88;;;12.95;;
25231;SDS011;13176;51.140;6.290;2022-09-01T15:04:47;13.48;;;12.77;;
25231;SDS011;13176;51.140;6.290;2022-09-01T15:07:13;10.93;;;10.32;;
25231;SDS011;13176;51.140;6.290;2022-09-01T15:09:40;13.75;;;12.95;;
25231;SDS011;13176;51.140;6.290;2022-09-01T15:12:07;14.05;;;13.35;;
25231;SDS011;13176;51.140;6.290;2022-09-01T15:14:35;13.90;;;13.20;;
25231;SDS011;13176;51.140;6.290;2022-09-01T15:17:02;14.73;;;13.88;;
25231;SDS011;13176;51.140;6.290;2022-09-01T15:19:29;12.70;;;12.00;;
25231;SDS011;13176;51.140;6.290;2022-09-01T15:21:55;12.98;;;12.13;;
25231;SDS011;13176;51.140;6.290;2022-09-01T15:24:22;11.45;;;10.85;;
25231;SDS011;13176;51.140;6.290;2022-09-01T15:26:48;10.15;;;9.60;;
25231;SDS011;13176;51.140;6.290;2022-09-01T15:29:15;9.93;;;9.05;;
25231;SDS011;13176;51.140;6.290;2022-09-01T15:31:42;12.45;;;11.65;;
25231;SDS011;13176;51.140;6.290;2022-09-01T15:34:09;11.40;;;10.50;;
25231;SDS011;13176;51.140;6.290;2022-09-01T15:36:38;10.73;;;10.02;;
25231;SDS011;13176;51.140;6.290;2022-09-01T15:39:06;9.40;;;8.80;;
25231;SDS011;13176;51.140;6.290;2022-09-01T15:41:35;10.02;;;9.35;;
25231;SDS011;13176;51.140;6.290;2022-09-01T15:44:04;8.93;;;8.43;;
25231;SDS011;13176;51.140;6.290;2022-09-01T15:46:32;7.57;;;7.18;;
25231;SDS011;13176;51.140;6.290;2022-09-01T15:49:02;7.40;;;7.00;;
25231;SDS011;13176;51.140;6.290;2022-09-01T15:51:32;9.18;;;8.35;;
25231;SDS011;13176;51.140;6.290;2022-09-01T15:54:16;8.00;;;7.40;;
25231;SDS011;13176;51.140;6.290;2022-09-01T15:56:44;7.43;;;6.93;;
25231;SDS011;13176;51.140;6.290;2022-09-01T15:59:12;10.07;;;9.57;;
25231;SDS011;13176;51.140;6.290;2022-09-01T16:01:41;11.27;;;10.57;;